createdAt,value
2018-12-05T00:00:24.369Z,90.00
2018-12-05T00:01:29.877Z,90.38
2018-12-05T00:02:35.675Z,90.10
2018-12-05T00:03:40.955Z,90.00
2018-12-05T00:04:46.408Z,90.19
2018-12-05T00:05:53.025Z,90.19
2018-12-05T00:06:57.396Z,89.91
2018-12-05T00:08:02.903Z,89.62
2018-12-05T00:09:08.412Z,89.72
2018-12-05T00:10:13.911Z,90.19
2018-12-05T00:11:19.425Z,90.00
2018-12-05T00:12:25.948Z,89.91
2018-12-05T00:13:30.434Z,89.91
2018-12-05T00:14:36.504Z,90.38
2018-12-05T00:15:41.443Z,90.57
2018-12-05T00:16:46.971Z,90.19
2018-12-05T00:17:52.464Z,90.67
2018-12-05T00:18:58.970Z,91.14
2018-12-05T00:20:04.028Z,90.76
2018-12-05T00:21:08.985Z,90.86
2018-12-05T00:22:14.492Z,91.05
2018-12-05T00:23:19.974Z,90.76
2018-12-05T00:24:25.489Z,90.86
2018-12-05T00:25:31.996Z,90.57
2018-12-05T00:26:36.499Z,90.76
2018-12-05T00:27:42.002Z,90.38
2018-12-05T00:28:47.524Z,90.48
2018-12-05T00:29:53.019Z,91.05
2018-12-05T00:30:59.507Z,90.86
2018-12-05T00:32:05.041Z,90.57
2018-12-05T00:33:09.536Z,91.24
2018-12-05T00:34:15.041Z,91.14
2018-12-05T00:35:20.546Z,91.33
2018-12-05T00:36:27.041Z,91.90
2018-12-05T00:37:31.564Z,91.52
2018-12-05T00:38:38.092Z,92.09
2018-12-05T00:39:42.561Z,91.99
2018-12-05T00:40:48.087Z,92.38
2018-12-05T00:41:53.580Z,92.47
2018-12-05T00:42:59.080Z,92.57
2018-12-05T00:44:04.590Z,92.57
2018-12-05T00:45:11.104Z,92.47
2018-12-05T00:46:16.558Z,92.57
2018-12-05T00:47:21.125Z,93.04
2018-12-05T00:48:26.614Z,92.94
2018-12-05T00:49:32.120Z,92.76
2018-12-05T00:50:37.626Z,92.09
2018-12-05T00:51:44.137Z,92.18
2018-12-05T00:52:48.646Z,91.80
2018-12-05T00:53:54.147Z,91.24
2018-12-05T00:54:59.663Z,91.61
2018-12-05T00:56:05.154Z,91.24
2018-12-05T00:57:10.671Z,91.99
2018-12-05T00:58:17.174Z,92.18
2018-12-05T00:59:21.682Z,92.28
2018-12-05T01:00:27.176Z,92.09
2018-12-05T01:01:32.687Z,92.28
2018-12-05T01:02:38.187Z,92.18
2018-12-05T01:03:43.695Z,92.09
2018-12-05T01:04:50.223Z,91.99
2018-12-05T01:05:54.720Z,92.38
2018-12-05T01:07:00.215Z,92.38
2018-12-05T01:08:05.720Z,91.90
2018-12-05T01:09:11.221Z,91.99
2018-12-05T01:10:16.745Z,91.80
2018-12-05T01:11:23.248Z,91.42
2018-12-05T01:12:27.745Z,91.99
2018-12-05T01:13:33.267Z,92.18
2018-12-05T01:14:38.747Z,92.28
2018-12-05T01:15:44.267Z,92.28
2018-12-05T01:16:49.779Z,92.28
2018-12-05T01:17:56.281Z,92.76
2018-12-05T01:19:00.779Z,93.51
2018-12-05T01:20:06.280Z,93.32
2018-12-05T01:21:11.790Z,93.70
2018-12-05T01:22:17.292Z,93.61
2018-12-05T01:23:22.804Z,93.51
2018-12-05T01:24:29.324Z,93.04
2018-12-05T01:25:33.829Z,93.41
2018-12-05T01:26:39.321Z,93.32
2018-12-05T01:27:44.819Z,93.51
2018-12-05T01:28:50.330Z,93.32
2018-12-05T01:29:55.836Z,93.32
2018-12-05T01:31:02.357Z,92.85
2018-12-05T01:32:06.852Z,93.04
2018-12-05T01:33:12.352Z,92.94
2018-12-05T01:34:17.863Z,93.23
2018-12-05T01:35:23.373Z,92.85
2018-12-05T01:36:28.869Z,92.90
2018-12-05T01:37:35.385Z,92.76
2018-12-05T01:38:39.886Z,92.99
2018-12-05T01:39:45.386Z,92.99
2018-12-05T01:40:50.895Z,92.61
2018-12-05T01:41:56.406Z,92.52
2018-12-05T01:43:01.907Z,92.14
2018-12-05T01:44:08.424Z,92.33
2018-12-05T01:45:12.912Z,92.04
2018-12-05T01:46:18.428Z,91.38
2018-12-05T01:47:23.930Z,91.09
2018-12-05T01:48:29.428Z,91.47
2018-12-05T01:49:34.954Z,91.47
2018-12-05T01:50:41.452Z,91.28
2018-12-05T01:51:45.950Z,91.66
2018-12-05T01:52:51.463Z,90.81
2018-12-05T01:53:56.960Z,90.62
2018-12-05T01:55:02.473Z,90.19
2018-12-05T01:56:07.966Z,90.57
2018-12-05T01:57:14.499Z,90.29
2018-12-05T01:58:18.997Z,90.19
2018-12-05T01:59:24.496Z,90.00
2018-12-05T02:00:30.014Z,91.05
2018-12-05T02:01:35.505Z,90.67
2018-12-05T02:02:41.016Z,90.76
2018-12-05T02:03:47.534Z,90.48
2018-12-05T02:04:52.025Z,91.00
2018-12-05T02:05:57.543Z,90.76
2018-12-05T02:07:03.057Z,90.76
2018-12-05T02:08:08.545Z,90.95
2018-12-05T02:09:14.063Z,91.09
2018-12-05T02:10:20.565Z,90.76
2018-12-05T02:11:25.064Z,90.19
2018-12-05T02:12:30.570Z,90.38
2018-12-05T02:13:36.073Z,90.38
2018-12-05T02:14:41.575Z,90.57
2018-12-05T02:15:47.082Z,90.19
2018-12-05T02:16:53.606Z,90.19
2018-12-05T02:17:58.106Z,90.19
2018-12-05T02:19:03.605Z,90.19
2018-12-05T02:20:09.113Z,90.19
2018-12-05T02:21:14.616Z,90.19
2018-12-05T02:22:20.127Z,90.00
2018-12-05T02:23:26.641Z,89.34
2018-12-05T02:24:31.149Z,89.43
2018-12-05T02:25:36.639Z,89.72
2018-12-05T02:26:42.142Z,89.15
2018-12-05T02:27:47.652Z,89.53
2018-12-05T02:28:53.150Z,88.87
2018-12-05T02:29:59.683Z,88.77
2018-12-05T02:31:04.168Z,89.43
2018-12-05T02:32:09.686Z,89.34
2018-12-05T02:33:15.178Z,89.06
2018-12-05T02:34:20.684Z,89.91
2018-12-05T02:35:26.190Z,89.34
2018-12-05T02:36:32.717Z,90.15
2018-12-05T02:37:37.206Z,90.38
2018-12-05T02:38:42.718Z,90.57
2018-12-05T02:39:48.214Z,90.76
2018-12-05T02:40:53.731Z,90.48
2018-12-05T02:41:59.233Z,90.57
2018-12-05T02:43:05.749Z,90.29
2018-12-05T02:44:10.233Z,90.19
2018-12-05T02:45:15.749Z,90.19
2018-12-05T02:46:21.255Z,90.10
2018-12-05T02:47:26.753Z,90.38
2018-12-05T02:48:32.266Z,90.57
2018-12-05T02:49:38.778Z,90.48
2018-12-05T02:50:43.278Z,90.48
2018-12-05T02:51:48.777Z,90.76
2018-12-05T02:52:54.283Z,90.76
2018-12-05T02:53:59.790Z,90.95
2018-12-05T02:55:05.295Z,90.67
2018-12-05T02:56:11.804Z,90.57
2018-12-05T02:57:16.313Z,90.38
2018-12-05T02:58:21.815Z,90.57
2018-12-05T02:59:27.332Z,90.19
2018-12-05T03:00:32.824Z,90.38
2018-12-05T03:01:38.336Z,90.38
2018-12-05T03:02:44.846Z,90.48
2018-12-05T03:03:49.342Z,90.29
2018-12-05T03:04:54.853Z,90.19
2018-12-05T03:06:00.362Z,90.29
2018-12-05T03:07:05.860Z,90.29
2018-12-05T03:08:11.365Z,90.00
2018-12-05T03:09:17.871Z,90.38
2018-12-05T03:10:22.389Z,90.19
2018-12-05T03:11:27.886Z,90.10
2018-12-05T03:12:33.388Z,90.29
2018-12-05T03:13:38.893Z,89.91
2018-12-05T03:14:44.397Z,90.38
2018-12-05T03:15:50.916Z,90.38
2018-12-05T03:16:55.421Z,90.10
2018-12-05T03:18:00.913Z,89.81
2018-12-05T03:19:06.427Z,89.62
2018-12-05T03:20:11.928Z,89.81
2018-12-05T03:21:17.440Z,89.81
2018-12-05T03:22:23.949Z,89.81
2018-12-05T03:23:28.451Z,90.10
2018-12-05T03:24:33.955Z,90.19
2018-12-05T03:25:39.449Z,90.38
2018-12-05T03:26:44.960Z,90.10
2018-12-05T03:27:50.470Z,90.10
2018-12-05T03:28:56.982Z,90.00
2018-12-05T03:30:01.480Z,90.19
2018-12-05T03:31:06.983Z,90.19
2018-12-05T03:32:12.496Z,89.72
2018-12-05T03:33:18.008Z,90.38
2018-12-05T03:34:23.505Z,90.48
2018-12-05T03:35:30.016Z,90.29
2018-12-05T03:36:34.509Z,90.29
2018-12-05T03:37:40.010Z,90.29
2018-12-05T03:38:45.526Z,90.76
2018-12-05T03:39:51.028Z,91.14
2018-12-05T03:40:56.537Z,90.76
2018-12-05T03:42:03.053Z,90.95
2018-12-05T03:43:07.546Z,90.95
2018-12-05T03:44:13.049Z,90.76
2018-12-05T03:45:18.559Z,90.76
2018-12-05T03:46:24.066Z,91.05
2018-12-05T03:47:29.572Z,90.86
2018-12-05T03:48:36.086Z,91.05
2018-12-05T03:49:40.590Z,90.57
2018-12-05T03:50:46.087Z,90.38
2018-12-05T03:51:51.597Z,90.10
2018-12-05T03:52:57.101Z,90.38
2018-12-05T03:54:02.615Z,90.10
2018-12-05T03:55:09.116Z,90.19
2018-12-05T03:56:13.622Z,90.19
2018-12-05T03:57:19.118Z,90.00
2018-12-05T03:58:24.624Z,89.72
2018-12-05T03:59:30.137Z,89.15
2018-12-05T04:00:35.648Z,88.77
2018-12-05T04:01:42.183Z,88.29
2018-12-05T04:02:46.645Z,88.20
2018-12-05T04:03:52.156Z,88.20
2018-12-05T04:04:57.670Z,88.20
2018-12-05T04:06:03.177Z,88.01
2018-12-05T04:07:08.678Z,88.01
2018-12-05T04:08:15.190Z,88.96
2018-12-05T04:09:19.695Z,88.77
2018-12-05T04:10:25.190Z,88.68
2018-12-05T04:11:30.698Z,88.63
2018-12-05T04:12:40.509Z,88.82
2018-12-05T04:13:41.704Z,88.73
2018-12-05T04:14:48.236Z,88.73
2018-12-05T04:15:52.728Z,88.54
2018-12-05T04:16:58.220Z,88.82
2018-12-05T04:18:03.730Z,88.63
2018-12-05T04:19:09.236Z,89.01
2018-12-05T04:20:14.744Z,88.73
2018-12-05T04:21:21.259Z,88.73
2018-12-05T04:22:25.747Z,88.73
2018-12-05T04:23:31.258Z,89.29
2018-12-05T04:24:36.759Z,89.39
2018-12-05T04:25:42.272Z,89.39
2018-12-05T04:26:47.772Z,89.20
2018-12-05T04:27:54.288Z,89.29
2018-12-05T04:28:58.784Z,88.92
2018-12-05T04:30:04.295Z,88.82
2018-12-05T04:31:09.794Z,89.01
2018-12-05T04:32:15.966Z,88.82
2018-12-05T04:33:20.807Z,89.01
2018-12-05T04:34:27.321Z,88.63
2018-12-05T04:35:31.828Z,88.82
2018-12-05T04:36:37.327Z,88.73
2018-12-05T04:37:42.825Z,89.20
2018-12-05T04:38:48.328Z,88.92
2018-12-05T04:39:53.835Z,89.39
2018-12-05T04:41:00.353Z,89.67
2018-12-05T04:42:04.863Z,89.67
2018-12-05T04:43:10.354Z,89.77
2018-12-05T04:44:15.860Z,89.77
2018-12-05T04:45:21.360Z,89.39
2018-12-05T04:46:26.877Z,89.67
2018-12-05T04:47:33.388Z,89.67
2018-12-05T04:48:37.885Z,89.77
2018-12-05T04:49:43.395Z,90.05
2018-12-05T04:50:48.886Z,89.86
2018-12-05T04:51:54.396Z,90.34
2018-12-05T04:52:59.905Z,89.67
2018-12-05T04:54:06.417Z,90.15
2018-12-05T04:55:10.909Z,90.43
2018-12-05T04:56:16.418Z,90.05
2018-12-05T04:57:21.932Z,90.53
2018-12-05T04:58:27.458Z,90.34
2018-12-05T04:59:32.934Z,90.24
2018-12-05T05:00:39.448Z,90.15
2018-12-05T05:01:43.945Z,90.34
2018-12-05T05:02:49.454Z,90.15
2018-12-05T05:03:54.963Z,90.05
2018-12-05T05:05:00.458Z,90.24
2018-12-05T05:06:05.969Z,90.05
2018-12-05T05:07:12.485Z,89.58
2018-12-05T05:08:16.983Z,89.58
2018-12-05T05:09:22.485Z,89.58
2018-12-05T05:10:27.994Z,89.86
2018-12-05T05:11:33.505Z,89.58
2018-12-05T05:12:38.997Z,89.77
2018-12-05T05:13:45.521Z,89.01
2018-12-05T05:14:50.015Z,89.01
2018-12-05T05:15:55.515Z,89.01
2018-12-05T05:17:01.022Z,89.06
2018-12-05T05:18:06.523Z,89.11
2018-12-05T05:19:12.032Z,89.53
2018-12-05T05:20:18.546Z,89.29
2018-12-05T05:21:23.055Z,88.82
2018-12-05T05:22:28.553Z,88.82
2018-12-05T05:23:34.061Z,89.20
2018-12-05T05:24:39.571Z,89.06
2018-12-05T05:25:45.062Z,89.15
2018-12-05T05:26:51.586Z,89.81
2018-12-05T05:27:56.078Z,89.86
2018-12-05T05:29:01.581Z,89.43
2018-12-05T05:30:07.090Z,89.43
2018-12-05T05:31:12.602Z,89.15
2018-12-05T05:32:18.103Z,89.01
2018-12-05T05:33:24.618Z,88.48
2018-12-05T05:34:29.113Z,89.11
2018-12-05T05:35:34.613Z,88.44
2018-12-05T05:36:40.122Z,89.01
2018-12-05T05:37:45.629Z,89.39
2018-12-05T05:38:51.140Z,89.29
2018-12-05T05:39:57.653Z,89.29
2018-12-05T05:41:02.149Z,88.92
2018-12-05T05:42:07.655Z,89.62
2018-12-05T05:43:13.152Z,89.39
2018-12-05T05:44:18.657Z,90.38
2018-12-05T05:45:24.174Z,90.34
2018-12-05T05:46:30.676Z,90.24
2018-12-05T05:47:35.172Z,90.19
2018-12-05T05:48:40.694Z,90.29
2018-12-05T05:49:46.185Z,90.19
2018-12-05T05:50:51.693Z,90.29
2018-12-05T05:51:57.202Z,90.38
2018-12-05T05:53:03.709Z,89.91
2018-12-05T05:54:08.204Z,90.29
2018-12-05T05:55:13.710Z,90.29
2018-12-05T05:56:19.225Z,90.19
2018-12-05T05:57:24.727Z,90.10
2018-12-05T05:58:30.233Z,90.10
2018-12-05T05:59:36.742Z,89.25
2018-12-05T06:00:41.238Z,89.81
2018-12-05T06:01:46.748Z,89.81
2018-12-05T06:02:52.255Z,89.91
2018-12-05T06:03:57.846Z,89.62
2018-12-05T06:05:03.261Z,89.72
2018-12-05T06:06:09.778Z,90.00
2018-12-05T06:07:14.278Z,90.00
2018-12-05T06:08:19.780Z,90.19
2018-12-05T06:09:25.279Z,90.29
2018-12-05T06:10:30.786Z,90.10
2018-12-05T06:11:36.297Z,90.29
2018-12-05T06:12:42.812Z,90.00
2018-12-05T06:13:47.313Z,90.10
2018-12-05T06:14:52.816Z,90.29
2018-12-05T06:15:58.326Z,90.29
2018-12-05T06:17:03.820Z,90.57
2018-12-05T06:18:09.324Z,90.19
2018-12-05T06:19:15.858Z,90.19
2018-12-05T06:20:20.344Z,90.76
2018-12-05T06:21:25.842Z,90.67
2018-12-05T06:22:31.349Z,90.38
2018-12-05T06:23:36.867Z,91.24
2018-12-05T06:24:42.357Z,90.95
2018-12-05T06:25:48.878Z,90.86
2018-12-05T06:26:53.383Z,90.86
2018-12-05T06:27:58.889Z,90.48
2018-12-05T06:29:04.393Z,90.57
2018-12-05T06:30:09.899Z,90.48
2018-12-05T06:31:15.401Z,90.29
2018-12-05T06:32:21.910Z,90.10
2018-12-05T06:33:26.420Z,89.91
2018-12-05T06:34:31.909Z,90.19
2018-12-05T06:35:37.419Z,89.81
2018-12-05T06:36:42.925Z,89.62
2018-12-05T06:37:48.427Z,89.81
2018-12-05T06:38:54.943Z,89.91
2018-12-05T06:39:59.500Z,90.29
2018-12-05T06:41:04.985Z,90.29
2018-12-05T06:42:10.472Z,90.38
2018-12-05T06:43:15.961Z,90.57
2018-12-05T06:44:21.461Z,90.76
2018-12-05T06:45:27.987Z,90.57
2018-12-05T06:46:32.484Z,90.29
2018-12-05T06:47:38.047Z,90.38
2018-12-05T06:48:43.483Z,90.38
2018-12-05T06:49:48.997Z,90.38
2018-12-05T06:50:54.506Z,90.29
2018-12-05T06:52:01.015Z,90.19
2018-12-05T06:53:05.519Z,90.48
2018-12-05T06:54:11.029Z,90.67
2018-12-05T06:55:16.525Z,90.86
2018-12-05T06:56:22.037Z,90.95
2018-12-05T06:57:27.541Z,90.57
2018-12-05T06:58:34.042Z,90.76
2018-12-05T06:59:38.544Z,90.67
2018-12-05T07:00:44.050Z,90.95
2018-12-05T07:01:49.550Z,91.14
2018-12-05T07:02:55.063Z,91.52
2018-12-05T07:04:00.570Z,92.18
2018-12-05T07:05:07.088Z,92.18
2018-12-05T07:06:11.587Z,92.09
2018-12-05T07:07:17.714Z,92.47
2018-12-05T07:08:22.593Z,92.47
2018-12-05T07:09:28.097Z,92.76
2018-12-05T07:10:33.601Z,92.57
2018-12-05T07:11:40.119Z,93.13
2018-12-05T07:12:44.621Z,93.04
2018-12-05T07:13:50.123Z,92.85
2018-12-05T07:14:55.649Z,93.23
2018-12-05T07:16:01.137Z,93.23
2018-12-05T07:17:06.632Z,93.13
2018-12-05T07:18:13.153Z,93.23
2018-12-05T07:19:17.647Z,93.23
2018-12-05T07:20:23.152Z,92.94
2018-12-05T07:21:28.662Z,93.32
2018-12-05T07:22:34.160Z,93.51
2018-12-05T07:23:39.670Z,93.32
2018-12-05T07:24:46.181Z,93.51
2018-12-05T07:25:50.680Z,93.89
2018-12-05T07:26:56.195Z,93.61
2018-12-05T07:28:01.692Z,94.18
2018-12-05T07:29:07.198Z,94.08
2018-12-05T07:30:12.695Z,94.46
2018-12-05T07:31:19.227Z,94.08
2018-12-05T07:32:23.715Z,94.08
2018-12-05T07:33:29.219Z,93.89
2018-12-05T07:34:34.723Z,93.99
2018-12-05T07:35:40.243Z,94.27
2018-12-05T07:36:45.736Z,93.89
2018-12-05T07:37:52.251Z,93.75
2018-12-05T07:38:56.745Z,94.32
2018-12-05T07:40:02.267Z,93.89
2018-12-05T07:41:07.757Z,93.99
2018-12-05T07:42:13.276Z,94.03
2018-12-05T07:43:18.770Z,93.56
2018-12-05T07:44:25.287Z,93.08
2018-12-05T07:45:29.785Z,92.90
2018-12-05T07:46:35.281Z,92.99
2018-12-05T07:47:40.806Z,93.37
2018-12-05T07:48:46.329Z,93.27
2018-12-05T07:49:51.840Z,92.99
2018-12-05T07:50:58.318Z,92.90
2018-12-05T07:52:02.817Z,93.27
2018-12-05T07:53:08.328Z,92.99
2018-12-05T07:54:13.826Z,93.08
2018-12-05T07:55:19.338Z,92.99
2018-12-05T07:56:24.838Z,92.80
2018-12-05T07:57:31.356Z,92.52
2018-12-05T07:58:35.852Z,92.33
2018-12-05T07:59:41.369Z,92.14
2018-12-05T08:00:46.865Z,92.47
2018-12-05T08:01:52.382Z,92.56
2018-12-05T08:02:57.873Z,92.37
2018-12-05T08:04:04.401Z,92.09
2018-12-05T08:05:08.907Z,92.28
2018-12-05T08:06:14.405Z,92.28
2018-12-05T08:07:19.912Z,92.18
2018-12-05T08:08:25.411Z,91.24
2018-12-05T08:09:30.912Z,91.61
2018-12-05T08:10:37.431Z,91.14
2018-12-05T08:11:41.931Z,91.14
2018-12-05T08:12:47.430Z,91.24
2018-12-05T08:13:52.947Z,91.61
2018-12-05T08:14:58.448Z,91.80
2018-12-05T08:16:03.955Z,91.80
2018-12-05T08:17:10.466Z,91.89
2018-12-05T08:18:14.963Z,92.09
2018-12-05T08:19:20.474Z,91.89
2018-12-05T08:20:25.982Z,91.80
2018-12-05T08:21:31.492Z,91.71
2018-12-05T08:22:37.002Z,91.89
2018-12-05T08:23:43.512Z,91.33
2018-12-05T08:24:48.017Z,91.52
2018-12-05T08:25:53.515Z,91.52
2018-12-05T08:26:59.022Z,91.33
2018-12-05T08:28:04.533Z,91.52
2018-12-05T08:29:10.040Z,90.76
2018-12-05T08:30:16.560Z,90.90
2018-12-05T08:31:21.049Z,90.80
2018-12-05T08:32:26.559Z,90.99
2018-12-05T08:33:32.061Z,90.90
2018-12-05T08:34:37.568Z,90.90
2018-12-05T08:35:43.076Z,90.90
2018-12-05T08:36:49.591Z,91.09
2018-12-05T08:37:54.083Z,91.09
2018-12-05T08:38:59.672Z,90.90
2018-12-05T08:40:05.094Z,91.09
2018-12-05T08:41:10.601Z,91.47
2018-12-05T08:42:16.110Z,90.90
2018-12-05T08:43:22.629Z,90.99
2018-12-05T08:44:27.124Z,91.09
2018-12-05T08:45:32.633Z,91.28
2018-12-05T08:46:38.180Z,90.99
2018-12-05T08:47:43.649Z,90.80
2018-12-05T08:48:49.155Z,90.80
2018-12-05T08:49:55.678Z,90.71
2018-12-05T08:51:00.170Z,90.71
2018-12-05T08:52:05.668Z,90.23
2018-12-05T08:53:11.180Z,90.52
2018-12-05T08:54:20.970Z,90.42
2018-12-05T08:55:22.200Z,90.33
2018-12-05T08:56:28.719Z,90.33
2018-12-05T08:57:33.213Z,89.28
2018-12-05T08:58:38.744Z,89.57
2018-12-05T08:59:44.234Z,89.90
2018-12-05T09:00:49.743Z,89.47
2018-12-05T09:01:55.251Z,90.28
2018-12-05T09:03:01.758Z,90.28
2018-12-05T09:04:06.254Z,90.09
2018-12-05T09:05:11.762Z,89.61
2018-12-05T09:06:17.265Z,89.90
2018-12-05T09:07:22.775Z,89.42
2018-12-05T09:08:28.285Z,89.33
2018-12-05T09:09:34.795Z,88.28
2018-12-05T09:10:39.295Z,88.28
2018-12-05T09:11:44.818Z,89.14
2018-12-05T09:12:50.342Z,88.67
2018-12-05T09:13:55.823Z,88.00
2018-12-05T09:15:01.331Z,88.38
2018-12-05T09:16:07.838Z,88.28
2018-12-05T09:17:12.351Z,89.04
2018-12-05T09:18:17.842Z,88.95
2018-12-05T09:19:23.355Z,88.76
2018-12-05T09:20:28.875Z,88.76
2018-12-05T09:21:34.371Z,88.95
2018-12-05T09:22:41.399Z,88.00
2018-12-05T09:23:45.387Z,88.13
2018-12-05T09:24:50.889Z,88.38
2018-12-05T09:25:56.421Z,87.81
2018-12-05T09:27:01.917Z,87.28
2018-12-05T09:28:07.430Z,87.19
2018-12-05T09:29:13.949Z,87.47
2018-12-05T09:30:18.435Z,87.28
2018-12-05T09:31:23.942Z,87.28
2018-12-05T09:32:29.445Z,87.47
2018-12-05T09:33:34.954Z,87.19
2018-12-05T09:34:40.464Z,87.09
2018-12-05T09:35:46.986Z,86.90
2018-12-05T09:36:51.475Z,86.90
2018-12-05T09:37:56.998Z,86.99
2018-12-05T09:39:02.494Z,86.61
2018-12-05T09:40:08.003Z,86.71
2018-12-05T09:41:13.505Z,86.52
2018-12-05T09:42:20.029Z,86.99
2018-12-05T09:43:24.537Z,86.80
2018-12-05T09:44:30.040Z,87.38
2018-12-05T09:45:35.539Z,87.47
2018-12-05T09:46:41.060Z,87.19
2018-12-05T09:47:46.601Z,86.61
2018-12-05T09:48:53.076Z,86.52
2018-12-05T09:49:57.584Z,87.09
2018-12-05T09:51:03.081Z,87.28
2018-12-05T09:52:08.613Z,86.90
2018-12-05T09:53:14.105Z,87.28
2018-12-05T09:54:19.600Z,87.09
2018-12-05T09:55:26.132Z,87.19
2018-12-05T09:56:30.626Z,87.09
2018-12-05T09:57:36.128Z,87.19
2018-12-05T09:58:41.632Z,87.66
2018-12-05T09:59:47.144Z,86.99
2018-12-05T10:00:52.656Z,86.66
2018-12-05T10:01:59.168Z,86.85
2018-12-05T10:03:03.672Z,86.57
2018-12-05T10:04:09.183Z,86.76
2018-12-05T10:05:14.689Z,87.04
2018-12-05T10:06:20.200Z,86.38
2018-12-05T10:07:25.837Z,87.04
2018-12-05T10:08:32.226Z,86.18
2018-12-05T10:09:36.733Z,85.80
2018-12-05T10:10:42.231Z,85.52
2018-12-05T10:11:47.834Z,86.09
2018-12-05T10:12:53.243Z,86.57
2018-12-05T10:13:58.763Z,86.94
2018-12-05T10:15:05.267Z,86.66
2018-12-05T10:16:09.768Z,87.13
2018-12-05T10:17:15.279Z,86.76
2018-12-05T10:18:20.784Z,87.13
2018-12-05T10:19:26.288Z,86.85
2018-12-05T10:20:31.797Z,87.04
2018-12-05T10:21:38.336Z,86.57
2018-12-05T10:22:42.824Z,86.94
2018-12-05T10:23:48.322Z,85.90
2018-12-05T10:24:53.831Z,85.99
2018-12-05T10:25:59.336Z,86.76
2018-12-05T10:27:04.848Z,86.47
2018-12-05T10:28:11.357Z,85.61
2018-12-05T10:29:15.873Z,85.80
2018-12-05T10:30:21.368Z,86.09
2018-12-05T10:31:27.020Z,86.04
2018-12-05T10:32:32.385Z,86.70
2018-12-05T10:33:37.894Z,85.52
2018-12-05T10:34:44.412Z,85.18
2018-12-05T10:35:48.910Z,85.28
2018-12-05T10:36:54.414Z,84.80
2018-12-05T10:37:59.943Z,84.61
2018-12-05T10:39:05.441Z,84.80
2018-12-05T10:40:10.948Z,85.18
2018-12-05T10:41:17.467Z,84.80
2018-12-05T10:42:21.982Z,85.08
2018-12-05T10:43:27.485Z,84.33
2018-12-05T10:44:32.973Z,84.04
2018-12-05T10:45:38.505Z,83.75
2018-12-05T10:46:44.001Z,84.04
2018-12-05T10:47:50.526Z,83.65
2018-12-05T10:48:55.014Z,83.65
2018-12-05T10:50:00.525Z,83.56
2018-12-05T10:51:06.031Z,84.13
2018-12-05T10:52:11.540Z,83.94
2018-12-05T10:53:17.070Z,84.33
2018-12-05T10:54:23.569Z,83.75
2018-12-05T10:55:28.065Z,83.85
2018-12-05T10:56:33.574Z,84.23
2018-12-05T10:57:39.084Z,83.94
2018-12-05T10:58:44.597Z,84.04
2018-12-05T10:59:50.101Z,83.94
2018-12-05T11:00:56.620Z,83.18
2018-12-05T11:02:01.120Z,83.75
2018-12-05T11:03:06.628Z,83.65
2018-12-05T11:04:12.137Z,83.94
2018-12-05T11:05:17.640Z,83.94
2018-12-05T11:06:23.149Z,84.04
2018-12-05T11:07:29.681Z,84.23
2018-12-05T11:08:34.169Z,83.94
2018-12-05T11:09:39.699Z,84.04
2018-12-05T11:10:45.186Z,84.52
2018-12-05T11:11:50.701Z,83.65
2018-12-05T11:12:56.205Z,83.47
2018-12-05T11:14:02.729Z,83.65
2018-12-05T11:15:07.231Z,83.56
2018-12-05T11:16:12.731Z,83.56
2018-12-05T11:17:18.240Z,84.13
2018-12-05T11:18:23.746Z,83.37
2018-12-05T11:19:29.257Z,83.56
2018-12-05T11:20:35.778Z,83.37
2018-12-05T11:21:40.274Z,83.56
2018-12-05T11:22:45.780Z,83.85
2018-12-05T11:23:51.287Z,83.28
2018-12-05T11:24:56.805Z,83.75
2018-12-05T11:26:02.314Z,84.13
2018-12-05T11:27:08.833Z,83.75
2018-12-05T11:28:13.326Z,83.94
2018-12-05T11:29:18.837Z,84.33
2018-12-05T11:30:24.345Z,84.52
2018-12-05T11:31:29.855Z,84.61
2018-12-05T11:32:35.374Z,84.13
2018-12-05T11:33:41.888Z,83.94
2018-12-05T11:34:46.385Z,83.56
2018-12-05T11:35:51.894Z,83.75
2018-12-05T11:36:57.402Z,83.28
2018-12-05T11:38:02.919Z,83.75
2018-12-05T11:39:08.426Z,83.75
2018-12-05T11:40:14.940Z,83.65
2018-12-05T11:41:19.451Z,83.37
2018-12-05T11:42:24.948Z,83.37
2018-12-05T11:43:30.451Z,83.56
2018-12-05T11:44:35.977Z,83.75
2018-12-05T11:45:41.465Z,83.28
2018-12-05T11:46:48.655Z,83.28
2018-12-05T11:47:52.490Z,83.75
2018-12-05T11:48:57.995Z,83.47
2018-12-05T11:50:03.519Z,83.65
2018-12-05T11:51:09.023Z,83.56
2018-12-05T11:52:14.524Z,83.47
2018-12-05T11:53:21.037Z,83.56
2018-12-05T11:54:25.547Z,83.85
2018-12-05T11:55:31.054Z,83.75
2018-12-05T11:56:36.571Z,83.65
2018-12-05T11:57:42.066Z,83.75
2018-12-05T11:58:47.582Z,83.94
2018-12-05T11:59:54.101Z,83.56
2018-12-05T12:00:58.596Z,83.28
2018-12-05T12:02:04.102Z,83.09
2018-12-05T12:03:09.611Z,83.47
2018-12-05T12:04:15.120Z,83.28
2018-12-05T12:05:20.642Z,83.18
2018-12-05T12:06:27.154Z,83.75
2018-12-05T12:07:31.644Z,83.56
2018-12-05T12:08:37.164Z,83.28
2018-12-05T12:09:42.670Z,83.47
2018-12-05T12:10:48.183Z,83.47
2018-12-05T12:11:53.683Z,83.75
2018-12-05T12:13:00.206Z,83.75
2018-12-05T12:14:04.711Z,83.56
2018-12-05T12:15:10.222Z,83.37
2018-12-05T12:16:15.731Z,83.56
2018-12-05T12:17:21.249Z,83.56
2018-12-05T12:18:26.738Z,84.13
2018-12-05T12:19:33.262Z,84.13
2018-12-05T12:20:37.763Z,83.56
2018-12-05T12:21:43.266Z,83.85
2018-12-05T12:22:48.768Z,84.13
2018-12-05T12:23:54.290Z,84.33
2018-12-05T12:24:59.786Z,83.65
2018-12-05T12:26:06.308Z,84.04
2018-12-05T12:27:10.809Z,83.94
2018-12-05T12:28:16.326Z,83.94
2018-12-05T12:29:21.835Z,84.04
2018-12-05T12:30:27.335Z,83.65
2018-12-05T12:31:32.838Z,83.56
2018-12-05T12:32:39.365Z,83.65
2018-12-05T12:33:43.865Z,83.75
2018-12-05T12:34:49.373Z,83.65
2018-12-05T12:35:54.881Z,83.94
2018-12-05T12:37:00.391Z,84.33
2018-12-05T12:38:05.897Z,84.89
2018-12-05T12:39:12.413Z,84.70
2018-12-05T12:40:16.918Z,84.33
2018-12-05T12:41:22.422Z,84.33
2018-12-05T12:42:27.930Z,84.13
2018-12-05T12:43:33.457Z,84.23
2018-12-05T12:44:38.955Z,83.85
2018-12-05T12:45:45.466Z,83.98
2018-12-05T12:46:49.979Z,83.94
2018-12-05T12:47:55.477Z,84.46
2018-12-05T12:49:01.007Z,84.13
2018-12-05T12:50:06.496Z,83.94
2018-12-05T12:51:12.068Z,84.17
2018-12-05T12:52:18.523Z,84.17
2018-12-05T12:53:23.036Z,83.80
2018-12-05T12:54:28.544Z,84.23
2018-12-05T12:55:34.040Z,83.65
2018-12-05T12:56:39.551Z,84.04
2018-12-05T12:57:45.066Z,84.08
2018-12-05T12:58:51.581Z,84.08
2018-12-05T12:59:56.099Z,83.70
2018-12-05T13:01:01.587Z,84.17
2018-12-05T13:02:07.104Z,83.61
2018-12-05T13:03:12.597Z,83.41
2018-12-05T13:04:18.119Z,83.37
2018-12-05T13:05:24.638Z,83.18
2018-12-05T13:06:29.129Z,83.41
2018-12-05T13:07:34.643Z,83.41
2018-12-05T13:08:40.147Z,83.80
2018-12-05T13:09:45.662Z,83.61
2018-12-05T13:10:51.164Z,83.61
2018-12-05T13:11:57.686Z,83.61
2018-12-05T13:13:02.192Z,83.61
2018-12-05T13:14:07.696Z,83.32
2018-12-05T13:15:13.199Z,83.51
2018-12-05T13:16:18.717Z,83.89
2018-12-05T13:17:24.226Z,83.18
2018-12-05T13:18:30.754Z,83.32
2018-12-05T13:19:35.242Z,83.51
2018-12-05T13:20:40.755Z,83.51
2018-12-05T13:21:46.256Z,83.89
2018-12-05T13:22:51.765Z,84.27
2018-12-05T13:23:57.279Z,83.89
2018-12-05T13:25:03.801Z,83.80
2018-12-05T13:26:08.295Z,84.27
2018-12-05T13:27:13.810Z,83.51
2018-12-05T13:28:19.310Z,84.17
2018-12-05T13:29:24.864Z,84.27
2018-12-05T13:30:30.334Z,84.36
2018-12-05T13:31:36.867Z,83.80
2018-12-05T13:32:41.378Z,84.27
2018-12-05T13:33:46.858Z,83.98
2018-12-05T13:34:52.371Z,83.89
2018-12-05T13:35:57.888Z,84.56
2018-12-05T13:37:03.388Z,84.65
2018-12-05T13:38:09.910Z,84.36
2018-12-05T13:39:14.428Z,84.17
2018-12-05T13:40:19.918Z,84.17
2018-12-05T13:41:25.412Z,83.98
2018-12-05T13:42:30.927Z,83.98
2018-12-05T13:43:36.450Z,83.89
2018-12-05T13:44:42.954Z,84.65
2018-12-05T13:45:47.465Z,84.65
2018-12-05T13:46:52.967Z,85.03
2018-12-05T13:47:58.475Z,85.13
2018-12-05T13:49:03.987Z,83.89
2018-12-05T13:50:09.502Z,83.61
2018-12-05T13:51:16.005Z,83.41
2018-12-05T13:52:20.521Z,83.70
2018-12-05T13:53:26.029Z,84.08
2018-12-05T13:54:31.523Z,84.17
2018-12-05T13:55:37.046Z,83.51
2018-12-05T13:56:42.541Z,84.08
2018-12-05T13:57:49.069Z,83.98
2018-12-05T13:58:53.558Z,84.17
2018-12-05T13:59:59.073Z,83.98
2018-12-05T14:01:04.585Z,84.17
2018-12-05T14:02:10.095Z,84.08
2018-12-05T14:03:15.605Z,84.08